Time;durP1;ratioP1;P1;durP2;ratioP2;P2;SDS_P1;SDS_P2;PMS_P1;PMS_P2;Temp;Humidity;BMP_temperature;BMP_pressure;BME280_temperature;BME280_humidity;BME280_pressure;Samples;Min_cycle;Max_cycle;Signal;HPM_P1;HPM_P2
2023/03/23 00:01:12;;;;;;;7.35;3.30;;;;;;;-145.63;100.00;61273.97;5008142;28;20119;-66
2023/03/23 00:03:40;;;;;;;4.22;3.10;;;;;;;-145.63;100.00;61273.97;5023163;28;20311;-66
2023/03/23 00:06:06;;;;;;;3.83;3.35;;;;;;;-145.63;100.00;61273.97;5004098;28;20037;-65
2023/03/23 00:08:33;;;;;;;3.08;2.65;;;;;;;-145.63;100.00;61273.97;5019271;28;20104;-66
2023/03/23 00:11:01;;;;;;;3.92;3.40;;;;;;;-145.63;100.00;61273.97;5013538;28;20041;-65
2023/03/23 00:13:28;;;;;;;4.60;3.28;;;;;;;-145.63;100.00;61273.97;5010835;28;20040;-66
2023/03/23 00:15:56;;;;;;;3.15;2.78;;;;;;;-145.63;100.00;61273.97;5019797;28;20053;-66
2023/03/23 00:18:23;;;;;;;3.20;2.90;;;;;;;-145.63;100.00;61273.97;5002201;28;20037;-66
2023/03/23 00:20:54;;;;;;;4.10;2.97;;;;;;;-145.63;100.00;61273.97;5021807;28;20302;-66
2023/03/23 00:23:25;;;;;;;3.20;2.90;;;;;;;-145.63;100.00;61273.97;5008077;28;20057;-66
2023/03/23 00:25:58;;;;;;;4.20;3.47;;;;;;;-145.63;100.00;61273.97;5013569;28;20104;-66
2023/03/23 00:28:26;;;;;;;3.20;2.90;;;;;;;-145.63;100.00;61273.97;5021999;28;20048;-66
2023/03/23 00:30:59;;;;;;;3.42;3.13;;;;;;;-145.63;100.00;61273.97;5023728;28;20117;-67
2023/03/23 00:33:27;;;;;;;3.00;2.70;;;;;;;-145.63;100.00;61273.97;5023085;28;20104;-67
2023/03/23 00:35:54;;;;;;;3.05;2.65;;;;;;;-145.63;100.00;61273.97;5004849;28;20526;-66
2023/03/23 00:38:21;;;;;;;5.32;2.90;;;;;;;-145.63;100.00;61273.97;5016237;28;20386;-65
2023/03/23 00:40:47;;;;;;;4.20;3.05;;;;;;;-145.63;100.00;61273.97;5013794;28;20034;-67
2023/03/23 00:43:15;;;;;;;3.53;2.97;;;;;;;-145.63;100.00;61273.97;5007993;28;20032;-66
2023/03/23 00:45:41;;;;;;;6.30;3.33;;;;;;;-145.63;100.00;61273.97;5021300;28;20052;-66
2023/03/23 00:48:06;;;;;;;3.42;3.13;;;;;;;-145.63;100.00;61273.97;5012494;28;20029;-66
2023/03/23 00:50:32;;;;;;;4.43;3.15;;;;;;;-145.63;100.00;61273.97;5022655;28;20038;-65
2023/03/23 00:52:58;;;;;;;2.90;2.65;;;;;;;-145.63;100.00;61273.97;5011902;28;20330;-65
2023/03/23 00:55:25;;;;;;;3.25;2.95;;;;;;;-145.63;100.00;61273.97;5009200;28;20021;-64
2023/03/23 00:57:51;;;;;;;3.30;3.00;;;;;;;-145.63;100.00;61273.97;5020967;28;20025;-66
2023/03/23 01:00:18;;;;;;;4.70;3.20;;;;;;;-145.63;100.00;61273.97;5002815;28;20403;-65
2023/03/23 01:02:44;;;;;;;4.18;2.80;;;;;;;-145.63;100.00;61273.97;5037223;28;20032;-66
2023/03/23 01:05:11;;;;;;;4.28;3.22;;;;;;;-145.63;100.00;61273.97;5029298;28;20026;-66
2023/03/23 01:07:37;;;;;;;3.85;3.20;;;;;;;-145.63;100.00;61273.97;5015174;28;20018;-66
2023/03/23 01:10:04;;;;;;;3.17;2.95;;;;;;;-145.63;100.00;61273.97;5006338;28;20041;-66
2023/03/23 01:12:30;;;;;;;3.65;3.10;;;;;;;-145.63;100.00;61273.97;5022933;28;20026;-65
2023/03/23 01:14:55;;;;;;;3.70;2.97;;;;;;;-145.63;100.00;61273.97;5003965;28;20329;-66
2023/03/23 01:17:21;;;;;;;3.60;3.30;;;;;;;-145.63;100.00;61273.97;5016824;28;20057;-66
2023/03/23 01:19:47;;;;;;;3.78;3.10;;;;;;;-145.63;100.00;61273.97;5022668;28;20044;-65
2023/03/23 01:22:12;;;;;;;4.70;3.03;;;;;;;-145.63;100.00;61273.97;5017634;28;20097;-65
2023/03/23 01:24:38;;;;;;;3.42;3.10;;;;;;;-145.63;100.00;61273.97;5002819;28;20023;-64
2023/03/23 01:27:06;;;;;;;3.22;2.92;;;;;;;-145.63;100.00;61273.97;5022011;28;20022;-65
2023/03/23 01:29:35;;;;;;;3.70;3.20;;;;;;;-145.63;100.00;61273.97;5035554;28;20326;-65
2023/03/23 01:32:02;;;;;;;4.25;3.22;;;;;;;-145.63;100.00;61273.97;5041585;28;20041;-65
2023/03/23 01:34:28;;;;;;;4.13;3.40;;;;;;;-145.63;100.00;61273.97;5035264;28;20045;-65
2023/03/23 01:36:53;;;;;;;5.18;3.28;;;;;;;-145.63;100.00;61273.97;5026611;28;20084;-65
2023/03/23 01:39:19;;;;;;;3.28;2.97;;;;;;;-145.63;100.00;61273.97;5026324;28;20041;-65
2023/03/23 01:41:44;;;;;;;3.58;3.28;;;;;;;-145.63;100.00;61273.97;5025959;28;20033;-65
2023/03/23 01:44:16;;;;;;;4.05;3.65;;;;;;;-145.63;100.00;61273.97;5014034;28;20034;-64
2023/03/23 01:46:42;;;;;;;4.85;3.25;;;;;;;-145.63;100.00;61273.97;5018165;28;20046;-66
2023/03/23 01:49:15;;;;;;;4.45;3.60;;;;;;;-145.63;100.00;61273.97;5026574;28;20207;-66
2023/03/23 01:51:47;;;;;;;4.20;3.22;;;;;;;-145.63;100.00;61273.97;5026423;28;20129;-66
2023/03/23 01:54:19;;;;;;;4.18;3.75;;;;;;;-145.63;100.00;61273.97;5005823;28;20029;-67
2023/03/23 01:56:54;;;;;;;3.95;3.33;;;;;;;-145.63;100.00;61273.97;5023561;28;20113;-66
2023/03/23 01:59:21;;;;;;;5.65;3.55;;;;;;;-145.63;100.00;61273.97;5012908;28;20196;-66
2023/03/23 02:01:47;;;;;;;5.53;3.58;;;;;;;-145.63;100.00;61273.97;5015531;28;20282;-66
2023/03/23 02:04:16;;;;;;;3.97;3.58;;;;;;;-145.63;100.00;61273.97;5028036;28;20056;-66
2023/03/23 02:06:44;;;;;;;4.63;3.90;;;;;;;-145.63;100.00;61273.97;5045045;28;20089;-66
2023/03/23 02:09:13;;;;;;;5.18;3.63;;;;;;;-145.63;100.00;61273.97;5006252;28;20093;-66
2023/03/23 02:11:39;;;;;;;4.10;3.70;;;;;;;-145.63;100.00;61273.97;5020826;28;20026;-66
2023/03/23 02:14:05;;;;;;;3.83;3.22;;;;;;;-145.63;100.00;61273.97;5014337;28;20314;-65
2023/03/23 02:16:45;;;;;;;4.85;3.50;;;;;;;-145.63;100.00;61273.97;5012893;28;20041;-65
2023/03/23 02:19:20;;;;;;;3.67;3.30;;;;;;;-145.63;100.00;61273.97;5022549;28;20097;-65
2023/03/23 02:21:54;;;;;;;4.70;3.38;;;;;;;-145.63;100.00;61273.97;5025213;28;20030;-66
2023/03/23 02:24:55;;;;;;;5.88;3.65;;;;;;;-145.63;100.00;61273.97;5044838;28;20206;-66
2023/03/23 02:27:38;;;;;;;4.63;3.63;;;;;;;-145.63;100.00;61273.97;5007371;28;20046;-65
2023/03/23 02:30:16;;;;;;;6.47;3.88;;;;;;;-145.63;100.00;61273.97;5022953;28;20050;-66
2023/03/23 02:32:59;;;;;;;5.47;4.00;;;;;;;-145.63;100.00;61273.97;5026041;28;20097;-65
2023/03/23 02:35:33;;;;;;;5.03;4.13;;;;;;;-145.63;100.00;61273.97;5011930;28;20042;-66
2023/03/23 02:38:04;;;;;;;4.30;3.85;;;;;;;-145.63;100.00;61273.97;5015694;28;20072;-66
2023/03/23 02:40:58;;;;;;;6.10;3.97;;;;;;;-145.63;100.00;61273.97;5018217;28;20030;-66
2023/03/23 02:43:27;;;;;;;4.25;3.83;;;;;;;-145.63;100.00;61273.97;5010393;28;20030;-66
2023/03/23 02:45:54;;;;;;;7.38;3.80;;;;;;;-145.63;100.00;61273.97;5023104;28;20068;-65
2023/03/23 02:48:24;;;;;;;5.53;3.92;;;;;;;-145.63;100.00;61273.97;5016494;28;20080;-66
2023/03/23 02:50:52;;;;;;;4.88;3.80;;;;;;;-145.63;100.00;61273.97;5024050;28;20029;-65
2023/03/23 02:53:23;;;;;;;6.57;4.43;;;;;;;-145.63;100.00;61273.97;5013790;28;20030;-65
2023/03/23 02:55:52;;;;;;;4.88;3.75;;;;;;;-145.63;100.00;61273.97;5014183;28;20056;-66
2023/03/23 02:58:19;;;;;;;4.38;3.67;;;;;;;-145.63;100.00;61273.97;5020032;28;20129;-66
2023/03/23 03:00:49;;;;;;;6.97;4.70;;;;;;;-145.63;100.00;61273.97;5005500;28;20089;-66
2023/03/23 03:03:19;;;;;;;4.95;3.95;;;;;;;-145.63;100.00;61273.97;5005016;28;20034;-66
2023/03/23 03:06:03;;;;;;;5.35;4.13;;;;;;;-145.63;100.00;61273.97;5020896;28;20030;-67
2023/03/23 03:08:39;;;;;;;4.88;3.95;;;;;;;-145.63;100.00;61273.97;5038250;28;20057;-67
2023/03/23 03:11:16;;;;;;;5.05;4.10;;;;;;;-145.63;100.00;61273.97;5034042;28;20026;-67
2023/03/23 03:13:53;;;;;;;6.00;3.92;;;;;;;-145.63;100.00;61273.97;5017510;28;20038;-66
2023/03/23 03:16:41;;;;;;;6.00;4.20;;;;;;;-145.63;100.00;61273.97;5009283;28;20591;-66
2023/03/23 03:19:40;;;;;;;5.35;4.20;;;;;;;-145.63;100.00;61273.97;5022203;28;20045;-65
2023/03/23 03:22:07;;;;;;;4.95;3.95;;;;;;;-145.63;100.00;61273.97;5006094;28;20105;-66
2023/03/23 03:24:34;;;;;;;5.72;4.15;;;;;;;-145.63;100.00;61273.97;5024321;28;20074;-66
2023/03/23 03:27:04;;;;;;;5.95;3.95;;;;;;;-145.63;100.00;61273.97;5024097;28;20026;-66
2023/03/23 03:29:33;;;;;;;6.68;3.80;;;;;;;-145.63;100.00;61273.97;5023007;28;20105;-66
2023/03/23 03:32:04;;;;;;;6.50;4.15;;;;;;;-145.63;100.00;61273.97;5027330;28;20076;-68
2023/03/23 03:34:31;;;;;;;4.75;3.40;;;;;;;-145.63;100.00;61273.97;5018366;28;20030;-64
2023/03/23 03:36:58;;;;;;;6.57;4.45;;;;;;;-145.63;100.00;61273.97;5020953;28;20291;-66
2023/03/23 03:39:25;;;;;;;6.50;3.63;;;;;;;-145.63;100.00;61273.97;5024028;28;20337;-67
2023/03/23 03:41:51;;;;;;;4.35;3.80;;;;;;;-145.63;100.00;61273.97;5007227;28;20034;-65
2023/03/23 03:44:17;;;;;;;6.32;4.18;;;;;;;-145.63;100.00;61273.97;5015971;28;20038;-66
2023/03/23 03:46:43;;;;;;;7.20;3.90;;;;;;;-145.63;100.00;61273.97;5016931;28;20034;-66
2023/03/23 03:49:12;;;;;;;5.07;3.67;;;;;;;-145.63;100.00;61273.97;5022150;28;20322;-66
2023/03/23 03:51:38;;;;;;;5.15;3.92;;;;;;;-145.63;100.00;61273.97;5023785;28;20307;-66
2023/03/23 03:54:04;;;;;;;6.07;3.90;;;;;;;-145.63;100.00;61273.97;5023474;28;20029;-65
2023/03/23 03:56:31;;;;;;;5.07;4.00;;;;;;;-145.63;100.00;61273.97;5010542;28;20098;-65
2023/03/23 03:58:57;;;;;;;4.20;3.80;;;;;;;-145.63;100.00;61273.97;5012044;28;20325;-65
2023/03/23 04:01:22;;;;;;;6.15;4.00;;;;;;;-145.63;100.00;61273.97;5019284;28;20140;-66
2023/03/23 04:03:49;;;;;;;5.45;3.85;;;;;;;-145.63;100.00;61273.97;5003551;28;20182;-65
2023/03/23 04:06:15;;;;;;;4.47;3.70;;;;;;;-145.63;100.00;61273.97;5023182;28;20056;-65
2023/03/23 04:08:42;;;;;;;6.22;3.78;;;;;;;-145.63;100.00;61273.97;5009033;28;20030;-67
2023/03/23 04:11:10;;;;;;;5.18;4.07;;;;;;;-145.63;100.00;61273.97;5014309;28;20093;-66
2023/03/23 04:13:36;;;;;;;6.25;4.57;;;;;;;-145.63;100.00;61273.97;5017752;28;20029;-66
2023/03/23 04:16:02;;;;;;;5.57;4.30;;;;;;;-145.63;100.00;61273.97;4986713;28;20033;-65
2023/03/23 04:18:29;;;;;;;5.13;4.18;;;;;;;-145.63;100.00;61273.97;5023457;28;20046;-66
2023/03/23 04:20:58;;;;;;;5.07;4.20;;;;;;;-145.63;100.00;61273.97;5039933;28;20029;-66
2023/03/23 04:23:25;;;;;;;6.55;3.95;;;;;;;-145.63;100.00;61273.97;5042688;28;20072;-66
2023/03/23 04:25:52;;;;;;;5.22;4.05;;;;;;;-145.63;100.00;61273.97;5035011;28;20234;-66
2023/03/23 04:28:23;;;;;;;6.82;3.97;;;;;;;-145.63;100.00;61273.97;5026551;28;20061;-66
2023/03/23 04:30:52;;;;;;;6.13;4.90;;;;;;;-145.63;100.00;61273.97;5042520;28;20033;-66
2023/03/23 04:33:29;;;;;;;7.20;5.15;;;;;;;-145.63;100.00;61273.97;5023166;28;20044;-67
2023/03/23 04:36:00;;;;;;;6.38;4.53;;;;;;;-145.63;100.00;61273.97;5006802;28;20041;-66
2023/03/23 04:38:27;;;;;;;11.88;5.35;;;;;;;-145.63;100.00;61273.97;5015926;28;20037;-66
2023/03/23 04:40:53;;;;;;;6.47;5.32;;;;;;;-145.63;100.00;61273.97;5015426;28;20080;-66
2023/03/23 04:43:24;;;;;;;8.63;5.03;;;;;;;-145.63;100.00;61273.97;5010028;28;20033;-65
2023/03/23 04:45:55;;;;;;;5.97;5.03;;;;;;;-145.63;100.00;61273.97;5042120;28;20053;-66
2023/03/23 04:48:22;;;;;;;;;;;;;;;-145.63;100.00;61273.97;5014721;28;20026;-67
2023/03/23 04:50:50;;;;;;;10.50;7.75;;;;;;;-145.63;100.00;61273.97;5022235;28;19906;-66
2023/03/23 04:53:17;;;;;;;7.00;5.45;;;;;;;-145.63;100.00;61273.97;5011508;28;20018;-66
2023/03/23 04:55:43;;;;;;;9.38;5.50;;;;;;;-145.63;100.00;61273.97;5009841;28;20060;-65
2023/03/23 04:58:12;;;;;;;9.73;6.35;;;;;;;-145.63;100.00;61273.97;5020276;28;20038;-66
2023/03/23 05:00:38;;;;;;;9.00;5.85;;;;;;;-145.63;100.00;61273.97;5003387;28;20041;-65
2023/03/23 05:03:04;;;;;;;9.27;6.18;;;;;;;-145.63;100.00;61273.97;5020465;28;20210;-66
2023/03/23 05:05:30;;;;;;;12.50;5.95;;;;;;;-145.63;100.00;61273.97;5009445;28;20034;-68
2023/03/23 05:07:56;;;;;;;9.45;6.88;;;;;;;-145.63;100.00;61273.97;5011229;28;20214;-66
2023/03/23 05:10:22;;;;;;;8.40;6.40;;;;;;;-145.63;100.00;61273.97;5026301;28;20044;-67
2023/03/23 05:12:48;;;;;;;9.10;6.00;;;;;;;-145.63;100.00;61273.97;5028597;28;20311;-65
2023/03/23 05:15:15;;;;;;;10.25;6.43;;;;;;;-145.63;100.00;61273.97;5029264;28;20042;-65
2023/03/23 05:17:43;;;;;;;9.05;6.13;;;;;;;-145.63;100.00;61273.97;5038453;28;20365;-66
2023/03/23 05:20:14;;;;;;;9.85;6.43;;;;;;;-145.63;100.00;61273.97;5041209;28;20097;-67
2023/03/23 05:22:41;;;;;;;10.10;7.07;;;;;;;-145.63;100.00;61273.97;5048623;28;20036;-66
2023/03/23 05:25:11;;;;;;;9.77;6.72;;;;;;;-145.63;100.00;61273.97;5047608;28;20321;-67
2023/03/23 05:27:38;;;;;;;12.23;6.80;;;;;;;-145.63;100.00;61273.97;5029224;28;20060;-67
2023/03/23 05:30:06;;;;;;;13.18;7.03;;;;;;;-145.63;100.00;61273.97;5011970;28;20030;-66
2023/03/23 05:32:32;;;;;;;11.00;7.25;;;;;;;-145.63;100.00;61273.97;5030095;28;20030;-64
2023/03/23 05:34:58;;;;;;;9.60;6.75;;;;;;;-145.63;100.00;61273.97;5020676;28;20053;-65
2023/03/23 05:37:26;;;;;;;9.68;7.43;;;;;;;-145.63;100.00;61273.97;5012515;28;20029;-65
2023/03/23 05:39:55;;;;;;;9.05;7.25;;;;;;;-145.63;100.00;61273.97;5029322;28;20049;-66
2023/03/23 05:42:24;;;;;;;9.10;7.22;;;;;;;-145.63;100.00;61273.97;5048410;28;20290;-66
2023/03/23 05:44:50;;;;;;;10.93;7.15;;;;;;;-145.63;100.00;61273.97;5048660;28;20029;-65
2023/03/23 05:47:16;;;;;;;9.60;6.90;;;;;;;-145.63;100.00;61273.97;5038208;28;20364;-64
2023/03/23 05:49:42;;;;;;;10.73;7.03;;;;;;;-145.63;100.00;61273.97;5022283;28;20034;-66
2023/03/23 05:52:08;;;;;;;10.57;6.70;;;;;;;-145.63;100.00;61273.97;5010358;28;20026;-65
2023/03/23 05:54:34;;;;;;;11.23;7.05;;;;;;;-145.63;100.00;61273.97;5028454;28;20081;-66
2023/03/23 05:57:00;;;;;;;10.35;6.90;;;;;;;-145.63;100.00;61273.97;5012583;28;20038;-66
2023/03/23 05:59:25;;;;;;;8.90;7.05;;;;;;;-145.63;100.00;61273.97;5021097;28;20174;-66
2023/03/23 06:01:53;;;;;;;9.05;7.15;;;;;;;-145.63;100.00;61273.97;5021658;28;20018;-66
2023/03/23 06:04:20;;;;;;;6.95;6.25;;;;;;;-145.63;100.00;61273.97;5011113;28;20030;-66
2023/03/23 06:06:46;;;;;;;9.82;7.38;;;;;;;-145.63;100.00;61273.97;5028685;28;20029;-67
2023/03/23 06:09:11;;;;;;;11.05;7.00;;;;;;;-145.63;100.00;61273.97;5028655;28;20348;-69
2023/03/23 06:11:37;;;;;;;11.25;7.65;;;;;;;-145.63;100.00;61273.97;5015737;28;20053;-68
2023/03/23 06:14:03;;;;;;;9.15;6.80;;;;;;;-145.63;100.00;61273.97;5017167;28;20036;-66
2023/03/23 06:16:29;;;;;;;8.38;7.20;;;;;;;-145.63;100.00;61273.97;5024258;28;20057;-66
2023/03/23 06:18:56;;;;;;;8.00;6.65;;;;;;;-145.63;100.00;61273.97;5009113;28;20064;-68
2023/03/23 06:21:22;;;;;;;11.50;7.28;;;;;;;-145.63;100.00;61273.97;5025548;28;20049;-68
2023/03/23 06:23:48;;;;;;;12.88;6.90;;;;;;;-145.63;100.00;61273.97;5039609;28;20053;-67
2023/03/23 06:26:16;;;;;;;9.82;7.10;;;;;;;-145.63;100.00;61273.97;5024656;28;20026;-66
2023/03/23 06:28:42;;;;;;;13.48;7.55;;;;;;;-145.63;100.00;61273.97;5004741;28;20037;-66
2023/03/23 06:31:08;;;;;;;12.25;7.22;;;;;;;-145.63;100.00;61273.97;5015585;28;20049;-68
2023/03/23 06:33:36;;;;;;;12.60;7.07;;;;;;;-145.63;100.00;61273.97;5024855;28;20059;-67
2023/03/23 06:36:03;;;;;;;9.15;7.70;;;;;;;-145.63;100.00;61273.97;5041610;28;20245;-66
2023/03/23 06:38:29;;;;;;;10.00;6.88;;;;;;;-145.63;100.00;61273.97;5032831;28;20523;-69
2023/03/23 06:40:55;;;;;;;10.40;8.13;;;;;;;-145.63;100.00;61273.97;5018207;28;20041;-67
2023/03/23 06:43:21;;;;;;;12.13;7.57;;;;;;;-145.63;100.00;61273.97;5008020;28;20030;-67
2023/03/23 06:45:47;;;;;;;11.13;7.75;;;;;;;-145.63;100.00;61273.97;5029755;28;20089;-67
2023/03/23 06:48:13;;;;;;;10.20;7.90;;;;;;;-145.63;100.00;61273.97;5026487;28;20215;-66
2023/03/23 06:50:43;;;;;;;10.00;7.82;;;;;;;-145.63;100.00;61273.97;5024930;28;20026;-67
2023/03/23 06:53:08;;;;;;;12.30;8.00;;;;;;;-145.63;100.00;61273.97;5015940;28;20045;-67
2023/03/23 06:55:34;;;;;;;13.13;7.70;;;;;;;-145.63;100.00;61273.97;5009454;28;20214;-65
2023/03/23 06:58:01;;;;;;;9.00;7.43;;;;;;;-145.63;100.00;61273.97;5024260;28;20041;-65
2023/03/23 07:00:26;;;;;;;12.93;7.82;;;;;;;-145.63;100.00;61273.97;5005247;28;20034;-66
2023/03/23 07:02:52;;;;;;;14.48;7.88;;;;;;;-145.63;100.00;61273.97;5019836;28;20299;-67
2023/03/23 07:05:19;;;;;;;9.75;7.20;;;;;;;-145.63;100.00;61273.97;5014401;28;20034;-66
2023/03/23 07:07:45;;;;;;;9.32;7.60;;;;;;;-145.63;100.00;61273.97;5010702;28;20041;-66
2023/03/23 07:10:11;;;;;;;12.35;8.02;;;;;;;-145.63;100.00;61273.97;5025085;28;20096;-66
2023/03/23 07:12:37;;;;;;;14.88;8.15;;;;;;;-145.63;100.00;61273.97;5030052;28;20455;-67
2023/03/23 07:15:04;;;;;;;11.65;8.00;;;;;;;-145.63;100.00;61273.97;5034151;28;20025;-67
2023/03/23 07:17:30;;;;;;;8.73;7.45;;;;;;;-145.63;100.00;61273.97;5033063;28;20043;-66
2023/03/23 07:19:56;;;;;;;14.05;8.55;;;;;;;-145.63;100.00;61273.97;5038187;28;20057;-67
2023/03/23 07:22:21;;;;;;;10.05;7.43;;;;;;;-145.63;100.00;61273.97;5033972;28;20309;-66
2023/03/23 07:24:47;;;;;;;13.75;7.97;;;;;;;-145.63;100.00;61273.97;5033077;28;20022;-66
2023/03/23 07:27:13;;;;;;;9.35;7.82;;;;;;;-145.63;100.00;61273.97;5032891;28;20049;-66
2023/03/23 07:29:39;;;;;;;11.00;7.30;;;;;;;-145.63;100.00;61273.97;5033489;28;20028;-66
2023/03/23 07:32:06;;;;;;;13.82;7.65;;;;;;;-145.63;100.00;61273.97;5030393;28;20363;-67
2023/03/23 07:34:32;;;;;;;11.95;7.43;;;;;;;-145.63;100.00;61273.97;5028158;28;20092;-66
2023/03/23 07:36:59;;;;;;;12.45;7.97;;;;;;;-145.63;100.00;61273.97;5027858;28;20584;-67
2023/03/23 07:39:25;;;;;;;11.15;6.68;;;;;;;-145.63;100.00;61273.97;5022448;28;20041;-67
2023/03/23 07:41:51;;;;;;;10.35;7.00;;;;;;;-145.63;100.00;61273.97;5031476;28;20352;-67
2023/03/23 07:44:17;;;;;;;11.80;7.20;;;;;;;-145.63;100.00;61273.97;5029842;28;20042;-66
2023/03/23 07:46:43;;;;;;;9.00;7.18;;;;;;;-145.63;100.00;61273.97;5032744;28;20032;-66
2023/03/23 07:49:10;;;;;;;9.63;7.25;;;;;;;-145.63;100.00;61273.97;5031990;28;20053;-66
2023/03/23 07:51:38;;;;;;;12.75;7.75;;;;;;;-145.63;100.00;61273.97;5032632;28;20049;-65
2023/03/23 07:54:06;;;;;;;11.98;7.35;;;;;;;-145.63;100.00;61273.97;5032271;28;20134;-65
2023/03/23 07:56:32;;;;;;;11.35;7.00;;;;;;;-145.63;100.00;61273.97;5023775;28;20157;-67
2023/03/23 07:58:57;;;;;;;12.10;6.95;;;;;;;-145.63;100.00;61273.97;5015086;28;20026;-66
2023/03/23 08:01:23;;;;;;;11.43;7.88;;;;;;;-145.63;100.00;61273.97;5005959;28;20295;-67
2023/03/23 08:03:51;;;;;;;11.80;6.90;;;;;;;-145.63;100.00;61273.97;5023750;28;20030;-66
2023/03/23 08:06:17;;;;;;;9.02;7.18;;;;;;;-145.63;100.00;61273.97;5013294;28;20222;-65
2023/03/23 08:08:42;;;;;;;10.63;6.85;;;;;;;-145.63;100.00;61273.97;5023527;28;20030;-66
2023/03/23 08:11:08;;;;;;;7.88;6.78;;;;;;;-145.63;100.00;61273.97;5015211;28;20057;-66
2023/03/23 08:13:34;;;;;;;8.40;6.40;;;;;;;-145.63;100.00;61273.97;5006505;28;20433;-66
2023/03/23 08:16:03;;;;;;;8.55;6.10;;;;;;;-145.63;100.00;61273.97;5023637;28;20037;-67
2023/03/23 08:18:30;;;;;;;8.23;6.50;;;;;;;-145.63;100.00;61273.97;5004337;28;20105;-67
2023/03/23 08:20:56;;;;;;;10.32;7.05;;;;;;;-145.63;100.00;61273.97;5032995;28;20250;-65
2023/03/23 08:23:21;;;;;;;9.18;6.25;;;;;;;-145.63;100.00;61273.97;5041917;28;20025;-67
2023/03/23 08:25:48;;;;;;;8.70;6.55;;;;;;;-145.63;100.00;61273.97;5038378;28;20040;-66
2023/03/23 08:28:14;;;;;;;7.10;5.85;;;;;;;-145.63;100.00;61273.97;5023253;28;20026;-66
2023/03/23 08:30:40;;;;;;;10.88;6.82;;;;;;;-145.63;100.00;61273.97;5007020;28;20033;-66
2023/03/23 08:33:07;;;;;;;8.25;6.60;;;;;;;-145.63;100.00;61273.97;5027216;28;20156;-66
2023/03/23 08:35:34;;;;;;;7.63;6.28;;;;;;;-145.63;100.00;61273.97;5033449;28;20032;-66
2023/03/23 08:38:00;;;;;;;10.25;6.35;;;;;;;-145.63;100.00;61273.97;5036273;28;20030;-66
2023/03/23 08:40:26;;;;;;;10.23;6.38;;;;;;;-145.63;100.00;61273.97;5021027;28;20034;-66
2023/03/23 08:42:52;;;;;;;11.00;6.75;;;;;;;-145.63;100.00;61273.97;5003447;28;20318;-66
2023/03/23 08:45:22;;;;;;;11.35;6.70;;;;;;;-145.63;100.00;61273.97;5037227;28;20021;-65
2023/03/23 08:47:52;;;;;;;10.85;6.35;;;;;;;-145.63;100.00;61273.97;5023237;28;20030;-66
2023/03/23 08:50:24;;;;;;;8.65;6.40;;;;;;;-145.63;100.00;61273.97;5013714;28;20038;-67
2023/03/23 08:52:50;;;;;;;;;;;;;;;-145.63;100.00;61273.97;5008397;28;20030;-66
2023/03/23 08:55:17;;;;;;;9.93;6.65;;;;;;;-145.63;100.00;61273.97;5037341;28;19911;-66
2023/03/23 08:57:43;;;;;;;12.85;6.30;;;;;;;-145.63;100.00;61273.97;5005536;28;20034;-66
2023/03/23 09:00:17;;;;;;;10.77;6.32;;;;;;;-145.63;100.00;61273.97;5001838;28;20308;-67
2023/03/23 09:02:47;;;;;;;6.70;6.00;;;;;;;-145.63;100.00;61273.97;5014518;28;20044;-66
2023/03/23 09:05:14;;;;;;;11.32;6.50;;;;;;;-145.63;100.00;61273.97;5030561;28;20228;-67
2023/03/23 09:07:42;;;;;;;8.23;5.97;;;;;;;-145.63;100.00;61273.97;5042247;28;20021;-66
2023/03/23 09:10:09;;;;;;;9.55;6.53;;;;;;;-145.63;100.00;61273.97;5041859;28;20254;-66
2023/03/23 09:12:35;;;;;;;7.80;6.50;;;;;;;-145.63;100.00;61273.97;5019829;28;20029;-66
2023/03/23 09:15:08;;;;;;;8.55;6.38;;;;;;;-145.63;100.00;61273.97;5007366;28;20022;-67
2023/03/23 09:17:53;;;;;;;7.05;6.22;;;;;;;-145.63;100.00;61273.97;5016336;28;20215;-67
2023/03/23 09:20:22;;;;;;;7.95;6.63;;;;;;;-145.63;100.00;61273.97;5014102;28;20054;-67
2023/03/23 09:22:50;;;;;;;8.82;6.63;;;;;;;-145.63;100.00;61273.97;5007924;28;20084;-68
2023/03/23 09:25:20;;;;;;;12.15;6.40;;;;;;;-145.63;100.00;61273.97;5022592;28;20026;-66
2023/03/23 09:27:51;;;;;;;7.60;6.80;;;;;;;-145.63;100.00;61273.97;5022860;28;20038;-68
2023/03/23 09:30:18;;;;;;;13.27;6.57;;;;;;;-145.63;100.00;61273.97;5022391;28;20035;-69
2023/03/23 09:32:44;;;;;;;12.50;6.38;;;;;;;-145.63;100.00;61273.97;5028784;28;20085;-67
2023/03/23 09:35:14;;;;;;;8.38;6.30;;;;;;;-145.63;100.00;61273.97;5014927;28;20026;-68
2023/03/23 09:37:40;;;;;;;9.57;6.07;;;;;;;-145.63;100.00;61273.97;5006663;28;20026;-68
2023/03/23 09:40:13;;;;;;;8.73;5.72;;;;;;;-145.63;100.00;61273.97;5023006;28;20026;-66
2023/03/23 09:42:48;;;;;;;6.00;5.50;;;;;;;-145.63;100.00;61273.97;5002918;28;20026;-67
2023/03/23 09:45:30;;;;;;;9.98;6.43;;;;;;;-145.63;100.00;61273.97;5026094;28;20032;-68
2023/03/23 09:48:20;;;;;;;7.13;6.32;;;;;;;-145.63;100.00;61273.97;5026479;28;20293;-66
2023/03/23 09:50:51;;;;;;;7.00;6.30;;;;;;;-145.63;100.00;61273.97;5008344;28;20098;-66
2023/03/23 09:53:28;;;;;;;7.10;5.63;;;;;;;-145.63;100.00;61273.97;5010656;28;20046;-67
2023/03/23 09:55:54;;;;;;;8.10;5.57;;;;;;;-145.63;100.00;61273.97;5027739;28;20111;-67
2023/03/23 09:58:41;;;;;;;7.65;5.70;;;;;;;-145.63;100.00;61273.97;5027379;28;20033;-66
2023/03/23 10:01:12;;;;;;;9.25;5.80;;;;;;;-145.63;100.00;61273.97;5005315;28;20034;-66
2023/03/23 10:03:44;;;;;;;7.93;5.70;;;;;;;-145.63;100.00;61273.97;5006247;28;20026;-67
2023/03/23 10:06:12;;;;;;;11.13;5.60;;;;;;;-145.63;100.00;61273.97;5021482;28;20037;-66
2023/03/23 10:08:44;;;;;;;7.35;5.18;;;;;;;-145.63;100.00;61273.97;5013733;28;20034;-66
2023/03/23 10:11:14;;;;;;;6.20;5.60;;;;;;;-145.63;100.00;61273.97;5020757;28;20047;-66
2023/03/23 10:14:21;;;;;;;8.80;6.03;;;;;;;-145.63;100.00;61273.97;5042506;28;20310;-66
2023/03/23 10:17:01;;;;;;;6.60;5.47;;;;;;;-145.63;100.00;61273.97;5021323;28;20054;-66
2023/03/23 10:19:40;;;;;;;7.25;5.22;;;;;;;-145.63;100.00;61273.97;5007276;28;20050;-66
2023/03/23 10:22:10;;;;;;;8.15;5.97;;;;;;;-145.63;100.00;61273.97;5025627;28;20057;-68
2023/03/23 10:24:49;;;;;;;7.85;5.63;;;;;;;-145.63;100.00;61273.97;5017249;28;20041;-67
2023/03/23 10:27:38;;;;;;;8.43;5.40;;;;;;;-145.63;100.00;61273.97;5033965;28;20060;-66
2023/03/23 10:30:10;;;;;;;8.20;5.80;;;;;;;-145.63;100.00;61273.97;5027447;28;20036;-67
2023/03/23 10:32:49;;;;;;;8.15;6.03;;;;;;;-145.63;100.00;61273.97;5032376;28;20064;-67
2023/03/23 10:35:20;;;;;;;8.85;5.88;;;;;;;-145.63;100.00;61273.97;5029694;28;20116;-66
2023/03/23 10:37:56;;;;;;;7.78;6.22;;;;;;;-145.63;100.00;61273.97;5024029;28;20025;-66
2023/03/23 10:40:27;;;;;;;9.10;6.03;;;;;;;-145.63;100.00;61273.97;5021161;28;20083;-67
2023/03/23 10:42:54;;;;;;;8.68;5.28;;;;;;;-145.63;100.00;61273.97;5012822;28;20299;-67
2023/03/23 10:45:21;;;;;;;8.15;6.15;;;;;;;-145.63;100.00;61273.97;5012606;28;20026;-67
2023/03/23 10:47:52;;;;;;;7.10;5.57;;;;;;;-145.63;100.00;61273.97;5014160;28;20291;-67
2023/03/23 10:54:23;;;;;;;6.50;5.60;;;;;;;-145.63;100.00;61273.97;5018579;28;20097;-66
2023/03/23 10:56:55;;;;;;;7.20;5.20;;;;;;;-145.63;100.00;61273.97;5010381;28;20053;-66
2023/03/23 10:59:32;;;;;;;9.07;5.75;;;;;;;-145.63;100.00;61273.97;5021123;28;20049;-67
2023/03/23 11:02:03;;;;;;;7.82;5.15;;;;;;;-145.63;100.00;61273.97;5039188;28;20041;-66
2023/03/23 11:04:31;;;;;;;9.02;5.85;;;;;;;-145.63;100.00;61273.97;5025921;28;20037;-69
2023/03/23 11:07:02;;;;;;;6.32;5.05;;;;;;;-145.63;100.00;61273.97;5044167;28;20025;-67
2023/03/23 11:09:37;;;;;;;7.65;5.25;;;;;;;-145.63;100.00;61273.97;5026901;28;20030;-67
2023/03/23 11:12:03;;;;;;;6.53;4.90;;;;;;;-145.63;100.00;61273.97;5019423;28;20113;-67
2023/03/23 11:14:39;;;;;;;8.15;5.40;;;;;;;-145.63;100.00;61273.97;5024386;28;20330;-67
2023/03/23 11:17:25;;;;;;;9.48;5.95;;;;;;;-145.63;100.00;61273.97;5024118;28;20061;-66
2023/03/23 11:19:52;;;;;;;6.55;4.88;;;;;;;-145.63;100.00;61273.97;5020495;28;20097;-66